createdAt,value
2023-03-18T00:01:29.620Z,6.57
2023-03-18T00:03:57.800Z,6.57
2023-03-18T00:06:26.149Z,6.17
2023-03-18T00:08:54.395Z,6.43
2023-03-18T00:11:24.434Z,6.40
2023-03-18T00:13:52.876Z,6.93
2023-03-18T00:16:21.330Z,6.87
2023-03-18T00:18:50.391Z,6.53
2023-03-18T00:21:20.055Z,7.27
2023-03-18T00:23:48.934Z,6.43
2023-03-18T00:26:17.617Z,7.10
2023-03-18T00:28:47.543Z,6.77
2023-03-18T00:31:16.020Z,6.73
2023-03-18T00:33:45.810Z,6.50
2023-03-18T00:36:15.380Z,6.47
2023-03-18T00:38:46.621Z,6.20
2023-03-18T00:41:16.498Z,6.73
2023-03-18T00:43:52.604Z,6.47
2023-03-18T00:46:24.598Z,5.90
2023-03-18T00:48:54.956Z,5.90
2023-03-18T00:51:25.953Z,5.80
2023-03-18T00:53:57.661Z,6.23
2023-03-18T00:56:29.431Z,6.13
2023-03-18T00:59:00.027Z,6.00
2023-03-18T01:01:29.845Z,6.73
2023-03-18T01:03:58.495Z,6.37
2023-03-18T01:06:30.087Z,6.50
2023-03-18T01:08:59.590Z,6.53
2023-03-18T01:11:28.620Z,6.47
2023-03-18T01:13:59.308Z,6.30
2023-03-18T01:16:28.205Z,5.80
2023-03-18T01:18:56.645Z,6.43
2023-03-18T01:21:25.504Z,6.43
2023-03-18T01:23:54.278Z,6.63
2023-03-18T01:26:23.159Z,6.37
2023-03-18T01:28:51.711Z,6.90
2023-03-18T01:31:21.204Z,6.20
2023-03-18T01:33:49.905Z,6.37
2023-03-18T01:36:18.424Z,6.23
2023-03-18T01:38:46.701Z,6.40
2023-03-18T01:41:16.749Z,6.47
2023-03-18T01:43:45.045Z,6.77
2023-03-18T01:46:38.316Z,6.47
2023-03-18T01:49:12.614Z,6.63
2023-03-18T01:51:47.344Z,6.67
2023-03-18T01:54:17.562Z,6.47
2023-03-18T01:56:50.473Z,6.80
2023-03-18T01:59:22.393Z,6.10
2023-03-18T02:01:58.165Z,6.50
2023-03-18T02:04:33.602Z,6.53
2023-03-18T02:07:02.315Z,6.47
2023-03-18T02:09:30.847Z,5.90
2023-03-18T02:12:02.264Z,6.47
2023-03-18T02:14:30.783Z,6.17
2023-03-18T02:17:14.283Z,6.50
2023-03-18T02:19:59.127Z,6.60
2023-03-18T02:22:33.159Z,6.23
2023-03-18T02:25:22.823Z,6.30
2023-03-18T02:27:59.165Z,7.10
2023-03-18T02:30:32.835Z,7.00
2023-03-18T02:33:02.539Z,6.20
2023-03-18T02:35:33.673Z,6.43
2023-03-18T02:38:01.924Z,6.10
2023-03-18T02:40:34.106Z,6.30
2023-03-18T02:43:21.125Z,6.50
2023-03-18T02:46:25.611Z,6.17
2023-03-18T02:48:54.983Z,6.73
2023-03-18T02:51:23.155Z,6.50
2023-03-18T02:53:52.288Z,6.37
2023-03-18T02:56:20.420Z,6.57
2023-03-18T02:58:51.683Z,5.80
2023-03-18T03:01:20.963Z,6.03
2023-03-18T03:03:49.979Z,6.17
2023-03-18T03:06:18.501Z,5.97
2023-03-18T03:08:47.369Z,6.03
2023-03-18T03:11:15.828Z,5.87
2023-03-18T03:13:45.958Z,6.00
2023-03-18T03:16:17.284Z,7.00
2023-03-18T03:18:45.778Z,6.07
2023-03-18T03:21:16.159Z,5.90
2023-03-18T03:23:45.995Z,6.10
2023-03-18T03:26:14.437Z,5.60
2023-03-18T03:28:43.002Z,5.90
2023-03-18T03:31:11.801Z,5.87
2023-03-18T03:33:43.693Z,5.70
2023-03-18T03:36:14.928Z,5.83
2023-03-18T03:38:43.527Z,5.97
2023-03-18T03:41:15.645Z,5.60
2023-03-18T03:43:44.837Z,6.07
2023-03-18T03:46:13.765Z,5.83
2023-03-18T03:48:43.295Z,5.73
2023-03-18T03:51:11.383Z,5.57
2023-03-18T03:53:39.513Z,5.70
2023-03-18T03:56:09.191Z,5.67
2023-03-18T03:58:37.792Z,5.83
2023-03-18T04:01:06.476Z,5.50
2023-03-18T04:03:34.948Z,5.53
2023-03-18T04:06:04.531Z,5.40
2023-03-18T04:08:32.723Z,5.43
2023-03-18T04:11:00.910Z,5.50
2023-03-18T04:13:29.076Z,5.00
2023-03-18T04:15:57.221Z,5.93
2023-03-18T04:18:25.931Z,5.53
2023-03-18T04:20:54.180Z,5.70
2023-03-18T04:23:23.655Z,5.73
2023-03-18T04:25:51.768Z,6.23
2023-03-18T04:28:19.874Z,5.40
2023-03-18T04:30:50.552Z,5.97
2023-03-18T04:33:19.387Z,5.53
2023-03-18T04:35:49.743Z,5.80
2023-03-18T04:38:18.076Z,5.53
2023-03-18T04:40:47.809Z,5.50
2023-03-18T04:43:16.116Z,5.80
2023-03-18T04:45:45.013Z,5.00
2023-03-18T04:48:13.163Z,5.10
2023-03-18T04:50:41.360Z,5.60
2023-03-18T04:53:09.921Z,5.73
2023-03-18T04:55:38.109Z,5.27
2023-03-18T04:58:07.595Z,5.87
2023-03-18T05:00:35.941Z,5.80
2023-03-18T05:03:04.474Z,5.63
2023-03-18T05:05:32.898Z,5.60
2023-03-18T05:08:01.223Z,5.60
2023-03-18T05:10:29.784Z,5.30
2023-03-18T05:12:57.911Z,5.20
2023-03-18T05:15:27.542Z,5.63
2023-03-18T05:17:55.648Z,4.83
2023-03-18T05:20:23.865Z,5.60
2023-03-18T05:22:52.300Z,5.33
2023-03-18T05:25:22.641Z,5.47
2023-03-18T05:27:50.735Z,5.63
2023-03-18T05:30:19.518Z,5.30
2023-03-18T05:32:49.035Z,5.90
2023-03-18T05:35:17.680Z,5.23
2023-03-18T05:37:46.566Z,5.77
2023-03-18T05:40:15.364Z,4.77
2023-03-18T05:42:55.394Z,5.27
2023-03-18T05:45:24.307Z,5.40
2023-03-18T05:47:53.925Z,4.93
2023-03-18T05:50:31.349Z,5.47
2023-03-18T05:53:00.750Z,5.07
2023-03-18T05:55:29.673Z,5.43
2023-03-18T05:57:59.025Z,5.37
2023-03-18T06:00:28.654Z,4.80
2023-03-18T06:02:59.765Z,4.50
2023-03-18T06:05:29.776Z,5.03
2023-03-18T06:07:58.659Z,5.17
2023-03-18T06:10:27.798Z,5.77
2023-03-18T06:12:56.816Z,5.03
2023-03-18T06:15:25.610Z,4.63
2023-03-18T06:17:53.817Z,5.30
2023-03-18T06:20:23.541Z,5.10
2023-03-18T06:22:51.925Z,5.87
2023-03-18T06:25:22.402Z,5.33
2023-03-18T06:27:51.055Z,5.23
2023-03-18T06:30:20.597Z,5.10
2023-03-18T06:32:48.758Z,5.73
2023-03-18T06:35:17.290Z,5.20
2023-03-18T06:37:46.790Z,5.50
2023-03-18T06:40:15.593Z,5.30
2023-03-18T06:42:44.544Z,5.60
2023-03-18T06:45:13.666Z,5.20
2023-03-18T06:47:42.976Z,5.27
2023-03-18T06:50:13.533Z,5.23
2023-03-18T06:52:42.303Z,4.73
2023-03-18T06:55:13.025Z,4.90
2023-03-18T06:57:41.537Z,5.00
2023-03-18T07:00:12.595Z,5.67
2023-03-18T07:02:40.969Z,5.30
2023-03-18T07:05:10.446Z,5.17
2023-03-18T07:07:38.656Z,5.37
2023-03-18T07:10:09.367Z,5.13
2023-03-18T07:12:40.244Z,4.60
2023-03-18T07:15:11.554Z,5.20
2023-03-18T07:17:39.659Z,5.10
2023-03-18T07:20:09.088Z,5.00
2023-03-18T07:22:37.810Z,5.70
2023-03-18T07:25:07.582Z,5.20
2023-03-18T07:27:36.033Z,5.73
2023-03-18T07:30:09.444Z,5.17
2023-03-18T07:32:38.690Z,4.90
2023-03-18T07:35:10.794Z,5.53
2023-03-18T07:37:40.296Z,5.17
2023-03-18T07:40:10.206Z,5.27
2023-03-18T07:42:38.876Z,6.50
2023-03-18T07:45:10.648Z,5.70
2023-03-18T07:47:39.053Z,5.70
2023-03-18T07:50:08.810Z,5.00
2023-03-18T07:52:37.388Z,5.47
2023-03-18T07:55:07.024Z,5.30
2023-03-18T07:57:35.397Z,5.30
2023-03-18T08:00:05.117Z,9.53
2023-03-18T08:02:36.074Z,6.13
2023-03-18T08:05:06.821Z,5.80
2023-03-18T08:07:35.708Z,5.23
2023-03-18T08:10:04.856Z,5.00
2023-03-18T08:12:45.340Z,5.23
2023-03-18T08:15:17.739Z,5.10
2023-03-18T08:17:47.306Z,4.90
2023-03-18T08:20:15.608Z,5.27
2023-03-18T08:22:45.881Z,5.20
2023-03-18T08:25:15.457Z,4.83
2023-03-18T08:27:44.069Z,4.67
2023-03-18T08:30:15.064Z,5.20
2023-03-18T08:32:43.883Z,5.60
2023-03-18T08:35:14.232Z,5.10
2023-03-18T08:37:42.559Z,4.83
2023-03-18T08:40:13.366Z,4.60
2023-03-18T08:42:41.551Z,5.23
2023-03-18T08:45:11.160Z,4.93
2023-03-18T08:47:39.605Z,5.03
2023-03-18T08:50:08.986Z,5.27
2023-03-18T08:52:39.801Z,4.80
2023-03-18T08:55:10.058Z,4.77
2023-03-18T08:57:38.884Z,4.83
2023-03-18T09:00:09.116Z,4.93
2023-03-18T09:02:37.315Z,4.43
2023-03-18T09:05:06.763Z,5.00
2023-03-18T09:07:35.248Z,5.17
2023-03-18T09:10:06.135Z,4.87
2023-03-18T09:12:34.510Z,5.27
2023-03-18T09:15:03.171Z,5.30
2023-03-18T09:17:51.097Z,5.23
2023-03-18T09:20:19.683Z,5.83
2023-03-18T09:22:50.924Z,4.80
2023-03-18T09:25:20.695Z,4.83
2023-03-18T09:27:48.949Z,5.23
2023-03-18T09:30:17.393Z,5.00
2023-03-18T09:32:45.733Z,4.50
2023-03-18T09:35:14.664Z,5.00
2023-03-18T09:37:43.922Z,4.77
2023-03-18T09:40:24.631Z,4.80
2023-03-18T09:43:10.606Z,5.07
2023-03-18T09:45:57.053Z,4.90
2023-03-18T09:49:18.679Z,4.50
2023-03-18T09:52:04.878Z,4.80
2023-03-18T09:54:39.623Z,4.38
2023-03-18T09:57:19.505Z,4.15
2023-03-18T09:59:54.694Z,4.88
2023-03-18T10:02:33.339Z,4.55
2023-03-18T10:05:06.744Z,4.45
2023-03-18T10:07:41.532Z,4.78
2023-03-18T10:10:19.266Z,4.25
2023-03-18T10:12:55.326Z,4.57
2023-03-18T10:15:32.447Z,4.45
2023-03-18T10:18:11.518Z,4.72
2023-03-18T10:20:56.136Z,4.60
2023-03-18T10:23:39.171Z,4.50
2023-03-18T10:26:17.409Z,4.32
2023-03-18T10:29:08.608Z,4.85
2023-03-18T10:31:50.961Z,4.75
2023-03-18T10:34:23.930Z,4.55
2023-03-18T10:37:00.339Z,4.30
2023-03-18T10:39:30.588Z,4.35
2023-03-18T10:42:21.814Z,4.78
2023-03-18T10:44:52.772Z,4.88
2023-03-18T10:47:28.262Z,4.45
2023-03-18T10:50:06.056Z,5.70
2023-03-18T10:52:42.516Z,4.80
2023-03-18T10:55:18.110Z,5.28
2023-03-18T10:57:46.355Z,5.28
2023-03-18T11:00:28.706Z,4.75
2023-03-18T11:02:58.529Z,5.07
2023-03-18T11:05:29.893Z,5.15
2023-03-18T11:08:02.036Z,5.50
2023-03-18T11:10:35.885Z,5.07
2023-03-18T11:13:06.236Z,4.60
2023-03-18T11:15:40.318Z,4.93
2023-03-18T11:18:19.813Z,4.50
2023-03-18T11:20:55.305Z,4.93
2023-03-18T11:23:46.228Z,4.82
2023-03-18T11:26:23.055Z,4.90
2023-03-18T11:28:56.136Z,4.70
2023-03-18T11:31:25.957Z,4.47
2023-03-18T11:34:00.627Z,4.88
2023-03-18T11:36:32.308Z,4.70
2023-03-18T11:39:05.585Z,5.05
2023-03-18T11:41:33.803Z,4.93
2023-03-18T11:44:04.948Z,5.38
2023-03-18T11:46:40.526Z,5.13
2023-03-18T11:49:16.220Z,4.90
2023-03-18T11:51:59.438Z,5.65
2023-03-18T11:55:04.211Z,5.25
2023-03-18T11:57:49.964Z,4.82
2023-03-18T12:00:33.376Z,5.95
2023-03-18T12:03:54.385Z,5.45
2023-03-18T12:06:24.927Z,5.47
2023-03-18T12:09:07.285Z,5.40
2023-03-18T12:12:00.681Z,5.47
2023-03-18T12:14:38.809Z,5.13
2023-03-18T12:17:27.077Z,5.18
2023-03-18T12:20:40.283Z,7.05
2023-03-18T12:23:38.647Z,5.60
2023-03-18T12:26:10.925Z,4.72
2023-03-18T12:28:54.909Z,5.30
2023-03-18T12:31:53.285Z,5.45
2023-03-18T12:34:46.387Z,5.13
2023-03-18T12:37:34.282Z,5.35
2023-03-18T12:40:36.470Z,4.97
2023-03-18T12:43:46.098Z,5.38
2023-03-18T12:46:28.763Z,4.68
2023-03-18T12:49:10.761Z,4.63
2023-03-18T12:51:47.923Z,4.90
2023-03-18T12:54:25.822Z,4.60
2023-03-18T12:57:03.560Z,4.15
2023-03-18T12:59:39.892Z,3.50
2023-03-18T13:02:41.247Z,2.72
2023-03-18T13:05:24.855Z,2.83
2023-03-18T13:08:07.627Z,3.20
2023-03-18T13:10:37.912Z,3.20
2023-03-18T13:13:11.507Z,3.25
2023-03-18T13:15:46.086Z,3.25
2023-03-18T13:18:20.109Z,3.33
2023-03-18T13:20:51.102Z,3.80
2023-03-18T13:23:45.491Z,3.20
2023-03-18T13:26:25.795Z,3.45
2023-03-18T13:29:13.981Z,3.60
2023-03-18T13:31:56.029Z,3.30
2023-03-18T13:35:13.323Z,3.42
2023-03-18T13:38:50.152Z,3.35
2023-03-18T13:42:09.131Z,2.63
2023-03-18T13:44:45.034Z,2.25
2023-03-18T13:47:20.806Z,2.58
2023-03-18T13:49:50.216Z,2.50
2023-03-18T13:52:30.350Z,2.42
2023-03-18T13:55:06.479Z,2.40
2023-03-18T13:57:49.453Z,2.80
2023-03-18T14:00:40.409Z,3.10
2023-03-18T14:03:21.917Z,3.00
2023-03-18T14:05:51.636Z,2.65
2023-03-18T14:08:50.223Z,2.20
2023-03-18T14:11:50.329Z,2.88
2023-03-18T14:14:54.863Z,2.50
2023-03-18T14:17:49.322Z,2.55
2023-03-18T14:20:39.427Z,2.42
2023-03-18T14:23:35.549Z,2.38
2023-03-18T14:26:08.800Z,2.72
2023-03-18T14:28:49.186Z,2.75
2023-03-18T14:31:33.091Z,2.78
2023-03-18T14:34:25.548Z,3.13
2023-03-18T14:37:29.316Z,2.97
2023-03-18T14:40:07.228Z,3.28
2023-03-18T14:43:00.813Z,2.67
2023-03-18T14:45:35.111Z,2.78
2023-03-18T14:48:16.716Z,3.30
2023-03-18T14:50:50.276Z,2.60
2023-03-18T14:53:28.561Z,3.08
2023-03-18T14:55:59.540Z,2.75
2023-03-18T14:58:28.584Z,2.70
2023-03-18T15:01:05.078Z,2.40
2023-03-18T15:03:35.015Z,2.50
2023-03-18T15:06:08.007Z,2.78
2023-03-18T15:08:48.049Z,2.40
2023-03-18T15:11:20.302Z,2.58
2023-03-18T15:13:48.536Z,2.25
2023-03-18T15:16:23.865Z,2.67
2023-03-18T15:18:56.906Z,2.53
2023-03-18T15:21:32.321Z,2.65
2023-03-18T15:24:05.261Z,2.60
2023-03-18T15:26:38.527Z,2.50
2023-03-18T15:29:27.957Z,2.55
2023-03-18T15:32:10.657Z,2.47
2023-03-18T15:34:44.689Z,1.95
2023-03-18T15:37:33.550Z,2.80
2023-03-18T15:40:29.761Z,2.38
2023-03-18T15:43:04.296Z,2.60
2023-03-18T15:45:34.114Z,2.40
2023-03-18T15:48:09.074Z,2.30
2023-03-18T15:50:38.749Z,2.20
2023-03-18T15:53:21.496Z,2.55
2023-03-18T15:55:52.770Z,2.80
2023-03-18T15:58:26.750Z,2.28
2023-03-18T16:00:57.471Z,2.30
2023-03-18T16:03:30.563Z,2.33
2023-03-18T16:06:01.919Z,2.85
2023-03-18T16:08:30.513Z,2.20
2023-03-18T16:11:05.746Z,2.13
2023-03-18T16:13:37.448Z,2.13
2023-03-18T16:16:06.491Z,2.28
2023-03-18T16:18:34.898Z,4.22
2023-03-18T16:21:04.720Z,4.45
2023-03-18T16:23:33.192Z,4.85
2023-03-18T16:26:02.110Z,4.60
2023-03-18T16:28:30.250Z,4.72
2023-03-18T16:30:58.517Z,3.25
2023-03-18T16:33:26.972Z,3.10
2023-03-18T16:35:59.147Z,2.70
2023-03-18T16:38:31.022Z,3.15
2023-03-18T16:40:59.329Z,3.03
2023-03-18T16:43:29.829Z,2.67
2023-03-18T16:46:03.959Z,2.88
2023-03-18T16:48:32.685Z,2.90
2023-03-18T16:51:02.771Z,2.55
2023-03-18T16:53:33.189Z,2.50
2023-03-18T16:56:11.049Z,2.58
2023-03-18T16:58:39.284Z,2.28
2023-03-18T17:01:07.861Z,2.25
2023-03-18T17:03:37.040Z,2.50
2023-03-18T17:06:06.718Z,2.50
2023-03-18T17:08:36.734Z,2.30
2023-03-18T17:11:05.995Z,2.70
2023-03-18T17:13:38.541Z,2.90
2023-03-18T17:16:15.271Z,2.67
2023-03-18T17:18:43.420Z,3.13
2023-03-18T17:21:13.200Z,4.45
2023-03-18T17:23:42.792Z,4.93
2023-03-18T17:26:15.782Z,4.57
2023-03-18T17:28:46.702Z,4.85
2023-03-18T17:31:15.382Z,5.03
2023-03-18T17:33:44.232Z,5.20
2023-03-18T17:36:12.582Z,5.10
2023-03-18T17:38:42.145Z,5.30
2023-03-18T17:41:20.841Z,5.30
2023-03-18T17:43:49.175Z,5.87
2023-03-18T17:46:17.468Z,5.30
2023-03-18T17:48:46.160Z,5.57
2023-03-18T17:51:18.573Z,6.07
2023-03-18T17:53:51.338Z,6.70
2023-03-18T17:56:20.948Z,6.10
2023-03-18T17:58:52.385Z,5.97
2023-03-18T18:01:26.550Z,6.43
2023-03-18T18:03:56.247Z,5.90
2023-03-18T18:06:28.997Z,6.00
2023-03-18T18:09:00.332Z,7.43
2023-03-18T18:11:31.182Z,7.13
2023-03-18T18:14:11.232Z,7.53
2023-03-18T18:16:39.597Z,6.65
2023-03-18T18:19:08.666Z,6.83
2023-03-18T18:21:37.487Z,7.20
2023-03-18T18:24:19.153Z,7.40
2023-03-18T18:26:48.231Z,7.47
2023-03-18T18:29:22.213Z,8.52
2023-03-18T18:31:52.195Z,7.87
2023-03-18T18:34:21.167Z,7.00
2023-03-18T18:36:50.636Z,7.80
2023-03-18T18:39:20.875Z,7.70
2023-03-18T18:41:49.290Z,7.60
2023-03-18T18:44:18.977Z,7.63
2023-03-18T18:46:47.686Z,8.20
2023-03-18T18:49:22.235Z,8.10
2023-03-18T18:51:53.200Z,7.90
2023-03-18T18:54:22.787Z,7.82
2023-03-18T18:56:52.125Z,7.70
2023-03-18T18:59:24.724Z,8.13
2023-03-18T19:01:53.351Z,8.00
2023-03-18T19:04:22.872Z,8.00
2023-03-18T19:06:52.353Z,7.67
2023-03-18T19:09:25.967Z,8.10
2023-03-18T19:11:56.098Z,7.47
2023-03-18T19:14:27.189Z,7.20
2023-03-18T19:16:58.866Z,7.23
2023-03-18T19:19:30.426Z,8.87
2023-03-18T19:21:58.820Z,8.47
2023-03-18T19:24:30.952Z,7.83
2023-03-18T19:27:02.867Z,8.43
2023-03-18T19:29:32.997Z,8.50
2023-03-18T19:32:02.161Z,8.17
2023-03-18T19:34:32.009Z,7.67
2023-03-18T19:37:02.617Z,7.47
2023-03-18T19:39:32.188Z,6.77
2023-03-18T19:42:00.428Z,6.63
2023-03-18T19:44:28.712Z,6.40
2023-03-18T19:47:01.050Z,6.10
2023-03-18T19:49:33.517Z,6.23
2023-03-18T19:52:02.314Z,6.70
2023-03-18T19:54:34.784Z,7.03
2023-03-18T19:57:06.673Z,6.83
2023-03-18T19:59:39.688Z,6.13
2023-03-18T20:02:24.216Z,6.60
2023-03-18T20:04:54.609Z,7.27
2023-03-18T20:07:25.576Z,6.43
2023-03-18T20:09:56.254Z,10.73
2023-03-18T20:12:29.842Z,9.20
2023-03-18T20:14:58.112Z,7.70
2023-03-18T20:17:32.245Z,7.13
2023-03-18T20:20:01.012Z,7.63
2023-03-18T20:22:33.733Z,7.63
2023-03-18T20:25:05.845Z,8.00
2023-03-18T20:27:34.384Z,7.93
2023-03-18T20:30:03.230Z,7.93
2023-03-18T20:32:31.766Z,8.43
2023-03-18T20:35:02.901Z,8.63
2023-03-18T20:37:35.936Z,8.50
2023-03-18T20:40:12.220Z,8.93
2023-03-18T20:42:41.437Z,10.50
2023-03-18T20:45:15.807Z,10.47
2023-03-18T20:47:44.307Z,10.53
2023-03-18T20:50:15.521Z,10.73
2023-03-18T20:52:45.483Z,11.03
2023-03-18T20:55:26.468Z,11.03
2023-03-18T20:57:55.391Z,11.70
2023-03-18T21:00:26.873Z,10.93
2023-03-18T21:02:58.003Z,11.50
2023-03-18T21:05:27.525Z,11.20
2023-03-18T21:07:55.823Z,10.70
2023-03-18T21:10:28.215Z,11.33
2023-03-18T21:12:56.426Z,10.87
2023-03-18T21:15:28.154Z,11.30
2023-03-18T21:17:56.478Z,12.53
2023-03-18T21:20:29.985Z,12.03
2023-03-18T21:22:58.088Z,11.70
2023-03-18T21:25:29.276Z,12.10
2023-03-18T21:27:58.327Z,12.23
2023-03-18T21:30:26.516Z,11.93
2023-03-18T21:32:54.722Z,12.00
2023-03-18T21:35:25.660Z,12.13
2023-03-18T21:37:54.466Z,12.60
2023-03-18T21:40:25.033Z,12.50
2023-03-18T21:42:54.778Z,11.70
2023-03-18T21:45:24.358Z,13.03
2023-03-18T21:47:53.104Z,12.40
2023-03-18T21:50:24.298Z,12.90
2023-03-18T21:52:54.981Z,13.03
2023-03-18T21:55:23.668Z,12.27
2023-03-18T21:57:51.840Z,12.17
2023-03-18T22:00:22.461Z,12.17
2023-03-18T22:02:51.007Z,11.90
2023-03-18T22:05:22.837Z,12.50
2023-03-18T22:07:52.126Z,12.40
2023-03-18T22:10:23.944Z,11.57
2023-03-18T22:12:52.494Z,11.87
2023-03-18T22:15:46.716Z,11.93
2023-03-18T22:18:15.905Z,11.90
2023-03-18T22:20:47.064Z,12.07
2023-03-18T22:23:22.305Z,12.00
2023-03-18T22:25:53.431Z,11.50
2023-03-18T22:28:22.935Z,11.90
2023-03-18T22:30:55.186Z,11.80
2023-03-18T22:33:29.468Z,12.27
2023-03-18T22:35:58.152Z,11.70
2023-03-18T22:38:27.298Z,12.00
2023-03-18T22:40:58.577Z,11.53
2023-03-18T22:43:31.926Z,11.57
2023-03-18T22:46:03.863Z,11.77
2023-03-18T22:48:32.554Z,12.43
2023-03-18T22:51:01.729Z,13.47
2023-03-18T22:53:36.617Z,12.13
2023-03-18T22:56:11.395Z,13.07
2023-03-18T22:58:40.641Z,12.10
2023-03-18T23:01:15.465Z,12.47
2023-03-18T23:03:44.750Z,11.20
2023-03-18T23:06:18.552Z,12.40
2023-03-18T23:08:47.222Z,11.50
2023-03-18T23:11:16.992Z,11.53
2023-03-18T23:13:49.753Z,11.33
2023-03-18T23:16:21.764Z,11.00
2023-03-18T23:18:51.412Z,11.90
2023-03-18T23:21:22.873Z,12.03
2023-03-18T23:23:52.387Z,11.47
2023-03-18T23:26:21.552Z,12.33
2023-03-18T23:28:49.843Z,12.53
2023-03-18T23:31:19.378Z,12.10
2023-03-18T23:33:48.090Z,11.90
2023-03-18T23:36:16.598Z,11.53
2023-03-18T23:38:44.764Z,11.07
2023-03-18T23:41:13.000Z,11.57
2023-03-18T23:43:41.207Z,11.27
2023-03-18T23:46:09.514Z,11.40
2023-03-18T23:48:39.132Z,11.80
2023-03-18T23:51:07.511Z,11.70
2023-03-18T23:53:35.776Z,11.47
2023-03-18T23:56:04.159Z,11.33
2023-03-18T23:58:32.310Z,10.67
